createdAt,value
2023-05-02T05:23:28.173Z,20.4540
2023-05-02T05:24:30.114Z,19.9410
2023-05-02T05:25:32.048Z,19.6105
2023-05-02T05:26:33.950Z,19.6070
2023-05-02T05:27:35.907Z,19.7549
2023-05-02T05:28:37.781Z,19.9547
2023-05-02T05:29:39.716Z,20.0554
2023-05-02T05:30:41.624Z,20.0774
2023-05-02T05:31:43.612Z,20.0346
2023-05-02T05:32:45.471Z,20.0923
2023-05-02T05:33:47.386Z,20.1661
2023-05-02T05:34:49.297Z,20.2661
2023-05-02T05:35:51.204Z,20.3690
2023-05-02T05:36:53.151Z,20.2760
2023-05-02T05:37:55.041Z,20.0991
2023-05-02T05:38:56.969Z,20.1055
2023-05-02T05:39:59.136Z,20.1873
2023-05-02T05:41:00.794Z,20.2704
2023-05-02T05:42:02.709Z,20.3579
2023-05-02T05:43:04.633Z,20.3822
2023-05-02T05:44:06.537Z,20.1981
2023-05-02T05:45:08.452Z,20.1846
2023-05-02T05:46:10.355Z,20.2511
2023-05-02T05:47:12.343Z,20.3284
2023-05-02T05:48:14.280Z,20.4233
2023-05-02T05:49:16.129Z,20.4461
2023-05-02T05:50:18.023Z,20.2651
2023-05-02T05:51:19.928Z,20.1772
2023-05-02T05:52:21.846Z,20.2487
2023-05-02T05:53:23.790Z,20.3335
2023-05-02T05:54:25.684Z,20.4175
2023-05-02T05:55:27.622Z,20.4775
2023-05-02T05:56:29.519Z,20.3530
2023-05-02T05:57:31.427Z,20.1770
2023-05-02T05:58:33.344Z,20.2281
2023-05-02T05:59:35.270Z,20.3160
2023-05-02T06:00:37.200Z,20.4122
2023-05-02T06:01:39.121Z,20.4851
2023-05-02T06:02:41.066Z,20.4442
2023-05-02T06:03:43.068Z,20.2285
2023-05-02T06:04:44.872Z,20.1367
2023-05-02T06:05:46.759Z,20.2121
2023-05-02T06:06:48.736Z,20.3282
2023-05-02T06:07:50.600Z,20.4126
2023-05-02T06:08:52.533Z,20.4687
2023-05-02T06:09:54.471Z,20.3573
2023-05-02T06:10:56.363Z,20.1180
2023-05-02T06:11:58.267Z,20.1306
2023-05-02T06:13:00.196Z,20.2402
2023-05-02T06:14:02.126Z,20.3553
2023-05-02T06:15:04.016Z,20.4288
2023-05-02T06:16:05.996Z,20.4502
2023-05-02T06:17:07.850Z,20.2407
2023-05-02T06:18:09.837Z,20.1112
2023-05-02T06:19:11.695Z,20.1794
2023-05-02T06:20:13.631Z,20.2897
2023-05-02T06:21:15.519Z,20.3955
2023-05-02T06:22:17.424Z,20.4535
2023-05-02T06:23:19.344Z,20.3680
2023-05-02T06:24:21.267Z,20.1850
2023-05-02T06:25:23.155Z,20.1983
2023-05-02T06:26:25.105Z,20.2602
2023-05-02T06:27:26.991Z,20.3255
2023-05-02T06:28:28.906Z,20.4341
2023-05-02T06:29:30.852Z,20.4009
2023-05-02T06:30:32.727Z,20.2565
2023-05-02T06:31:34.671Z,20.3052
2023-05-02T06:32:36.586Z,20.3918
2023-05-02T06:33:38.479Z,20.4576
2023-05-02T06:34:40.396Z,20.5017
2023-05-02T06:35:42.318Z,20.4898
2023-05-02T06:36:44.217Z,20.2505
2023-05-02T06:37:46.138Z,20.1525
2023-05-02T06:38:48.065Z,20.2271
2023-05-02T06:39:49.952Z,20.3448
2023-05-02T06:40:51.878Z,20.4202
2023-05-02T06:41:53.784Z,20.4884
2023-05-02T06:42:55.707Z,20.3863
2023-05-02T06:43:57.642Z,20.1546
2023-05-02T06:44:59.536Z,20.1462
2023-05-02T06:46:01.458Z,20.2018
2023-05-02T06:47:03.444Z,20.3134
2023-05-02T06:48:05.338Z,20.4019
2023-05-02T06:49:07.192Z,20.4518
2023-05-02T06:50:09.116Z,20.2805
2023-05-02T06:51:11.059Z,20.1951
2023-05-02T06:52:12.932Z,20.2462
2023-05-02T06:53:14.854Z,20.3150
2023-05-02T06:54:16.791Z,20.4011
2023-05-02T06:55:18.723Z,20.4662
2023-05-02T06:56:20.631Z,20.3193
2023-05-02T06:57:22.507Z,20.1579
2023-05-02T06:58:24.439Z,20.2004
2023-05-02T06:59:26.348Z,20.3060
2023-05-02T07:00:28.246Z,20.3844
2023-05-02T07:01:30.271Z,20.4643
2023-05-02T07:02:32.172Z,20.4019
2023-05-02T07:03:34.008Z,20.2090
2023-05-02T07:04:36.012Z,20.2211
2023-05-02T07:05:37.825Z,20.2922
2023-05-02T07:06:39.777Z,20.3625
2023-05-02T07:07:41.638Z,20.4602
2023-05-02T07:08:43.558Z,20.4619
2023-05-02T07:09:45.467Z,20.2731
2023-05-02T07:10:47.404Z,20.2407
2023-05-02T07:11:49.292Z,20.3000
2023-05-02T07:12:51.214Z,20.3764
2023-05-02T07:13:53.132Z,20.4543
2023-05-02T07:14:55.028Z,20.4849
2023-05-02T07:15:56.950Z,20.3103
2023-05-02T07:16:58.989Z,20.1737
2023-05-02T07:18:00.879Z,20.2068
2023-05-02T07:19:02.685Z,20.3002
2023-05-02T07:20:04.745Z,20.3996
2023-05-02T07:21:06.519Z,20.5467
2023-05-02T07:22:08.434Z,21.0689
2023-05-02T07:23:10.378Z,21.3772
2023-05-02T07:24:12.268Z,21.5278
2023-05-02T07:25:14.174Z,21.6535
2023-05-02T07:26:16.089Z,21.7514
2023-05-02T07:27:18.018Z,21.8428
2023-05-02T07:28:19.942Z,21.9632
2023-05-02T07:29:21.846Z,21.9852
2023-05-02T07:30:23.769Z,22.0131
2023-05-02T07:31:25.700Z,22.0310
2023-05-02T07:32:27.826Z,22.0797
2023-05-02T07:33:29.484Z,22.1086
2023-05-02T07:34:31.399Z,22.1760
2023-05-02T07:35:33.313Z,22.2099
2023-05-02T07:36:35.233Z,22.1978
2023-05-02T07:37:37.189Z,22.2229
2023-05-02T07:38:39.035Z,22.2274
2023-05-02T07:39:40.952Z,22.2442
2023-05-02T07:40:42.855Z,22.2202
2023-05-02T07:41:44.772Z,22.2461
2023-05-02T07:42:46.783Z,22.2485
2023-05-02T07:43:48.608Z,22.2773
2023-05-02T07:44:50.520Z,22.3237
2023-05-02T07:45:52.447Z,22.3169
2023-05-02T07:46:54.345Z,22.3225
2023-05-02T07:47:56.305Z,22.3120
2023-05-02T07:48:58.179Z,22.3365
2023-05-02T07:50:00.672Z,22.3527
2023-05-02T07:51:02.000Z,22.3502
2023-05-02T07:52:03.904Z,22.3666
2023-05-02T07:53:05.806Z,22.3954
2023-05-02T07:54:07.719Z,22.3590
2023-05-02T07:55:09.673Z,22.4229
2023-05-02T07:56:11.562Z,22.4131
2023-05-02T07:57:13.470Z,22.4498
2023-05-02T07:58:15.405Z,22.4301
2023-05-02T07:59:17.292Z,22.4203
2023-05-02T08:00:19.188Z,22.3595
2023-05-02T08:01:21.121Z,22.4108
2023-05-02T08:02:24.699Z,22.4511
2023-05-02T08:03:25.035Z,22.4367
2023-05-02T08:04:26.945Z,22.4322
2023-05-02T08:05:28.761Z,22.4675
2023-05-02T08:06:30.716Z,22.4665
2023-05-02T08:07:32.603Z,22.4825
2023-05-02T08:08:34.496Z,22.4350
2023-05-02T08:09:36.404Z,22.4667
2023-05-02T08:10:38.317Z,22.4735
2023-05-02T08:11:40.241Z,22.4400
2023-05-02T08:12:42.165Z,22.4605
2023-05-02T08:13:44.053Z,22.4642
2023-05-02T08:14:45.974Z,22.2044
2023-05-02T08:15:47.921Z,21.3174
2023-05-02T08:16:49.867Z,20.7751
2023-05-02T08:17:51.756Z,20.4231
2023-05-02T08:18:53.640Z,20.2635
2023-05-02T08:19:55.520Z,20.2653
2023-05-02T08:20:57.436Z,20.3277
2023-05-02T08:21:59.365Z,20.4091
2023-05-02T08:23:01.345Z,20.3748
2023-05-02T08:24:03.204Z,20.3327
2023-05-02T08:25:05.153Z,20.3863
2023-05-02T08:26:07.016Z,20.4481
2023-05-02T08:27:08.924Z,20.5120
2023-05-02T08:28:10.848Z,20.5779
2023-05-02T08:29:12.743Z,20.4417
2023-05-02T08:30:14.666Z,20.2337
2023-05-02T08:31:16.628Z,20.2055
2023-05-02T08:32:18.559Z,20.2758
2023-05-02T08:33:20.448Z,20.3436
2023-05-02T08:34:22.339Z,20.4317
2023-05-02T08:35:24.253Z,20.4756
2023-05-02T08:36:26.159Z,20.3204
2023-05-02T08:37:28.098Z,20.2129
2023-05-02T08:38:29.999Z,20.2602
2023-05-02T08:39:31.905Z,20.3099
2023-05-02T08:40:41.494Z,20.4074
2023-05-02T08:41:35.715Z,20.4620
2023-05-02T08:42:37.630Z,20.3898
2023-05-02T08:43:39.544Z,20.1842
2023-05-02T08:44:41.481Z,20.2029
2023-05-02T08:45:43.358Z,20.2803
2023-05-02T08:46:45.308Z,20.3606
2023-05-02T08:47:47.225Z,20.4426
2023-05-02T08:48:49.111Z,20.4740
2023-05-02T08:49:51.009Z,20.2943
2023-05-02T08:50:52.961Z,20.1599
2023-05-02T08:51:54.829Z,20.2302
2023-05-02T08:52:56.744Z,20.3058
2023-05-02T08:53:58.673Z,20.3799
2023-05-02T08:55:00.852Z,20.4516
2023-05-02T08:56:02.489Z,20.3861
2023-05-02T08:57:04.440Z,20.2320
2023-05-02T08:58:06.297Z,20.2339
2023-05-02T08:59:08.215Z,20.2955
2023-05-02T09:00:10.130Z,20.3805
2023-05-02T09:01:12.060Z,20.4528
2023-05-02T09:02:13.944Z,20.4450
2023-05-02T09:03:15.976Z,20.2501
2023-05-02T09:04:17.832Z,20.1916
2023-05-02T09:05:19.693Z,20.2493
2023-05-02T09:06:21.618Z,20.3347
2023-05-02T09:07:23.497Z,20.4064
2023-05-02T09:08:25.467Z,20.4514
2023-05-02T09:09:27.338Z,20.2891
2023-05-02T09:10:29.869Z,20.1780
2023-05-02T09:11:31.182Z,20.2483
2023-05-02T09:12:33.075Z,20.3251
2023-05-02T09:13:34.992Z,20.4111
2023-05-02T09:14:36.886Z,20.4763
2023-05-02T09:15:38.801Z,20.4309
2023-05-02T09:16:40.769Z,20.2123
2023-05-02T09:17:42.656Z,20.1901
2023-05-02T09:18:44.543Z,20.2698
2023-05-02T09:19:46.566Z,20.3460
2023-05-02T09:20:48.372Z,20.4296
2023-05-02T09:21:50.270Z,20.4691
2023-05-02T09:22:52.198Z,20.3078
2023-05-02T09:23:54.084Z,20.1663
2023-05-02T09:24:56.012Z,20.2388
2023-05-02T09:25:57.992Z,20.3337
2023-05-02T09:26:59.876Z,20.4099
2023-05-02T09:28:01.833Z,20.4804
2023-05-02T09:29:03.700Z,20.3791
2023-05-02T09:30:05.614Z,20.1723
2023-05-02T09:31:07.582Z,20.1889
2023-05-02T09:32:09.513Z,20.2756
2023-05-02T09:33:11.446Z,20.3797
2023-05-02T09:34:13.277Z,20.4452
2023-05-02T09:35:15.190Z,20.4633
2023-05-02T09:36:17.094Z,20.2735
2023-05-02T09:37:19.027Z,20.1328
2023-05-02T09:38:21.020Z,20.1879
2023-05-02T09:39:25.512Z,20.2807
2023-05-02T09:40:24.748Z,20.3612
2023-05-02T09:41:26.660Z,20.4397
2023-05-02T09:42:28.568Z,20.3703
2023-05-02T09:43:30.474Z,20.2129
2023-05-02T09:44:32.925Z,20.2608
2023-05-02T09:45:34.337Z,20.3380
2023-05-02T09:46:36.227Z,20.4270
2023-05-02T09:47:38.234Z,20.4857
2023-05-02T09:48:40.026Z,20.4734
2023-05-02T09:49:41.957Z,20.2483
2023-05-02T09:50:43.854Z,20.1264
2023-05-02T09:51:45.791Z,20.2018
2023-05-02T09:52:47.676Z,20.2914
2023-05-02T09:53:49.592Z,20.3803
2023-05-02T09:54:51.517Z,20.4539
2023-05-02T09:55:53.429Z,20.3446
2023-05-02T09:56:55.362Z,20.1836
2023-05-02T09:57:57.255Z,20.2152
2023-05-02T09:58:59.172Z,20.2910
2023-05-02T10:00:01.083Z,20.3733
2023-05-02T10:01:03.056Z,20.4524
2023-05-02T10:02:04.979Z,20.4259
2023-05-02T10:03:06.935Z,20.2199
2023-05-02T10:04:08.788Z,20.1170
2023-05-02T10:05:10.664Z,20.2041
2023-05-02T10:06:12.578Z,20.3070
2023-05-02T10:07:14.479Z,20.3939
2023-05-02T10:08:16.397Z,20.4621
2023-05-02T10:09:21.415Z,20.3123
2023-05-02T10:10:20.225Z,20.2010
2023-05-02T10:11:22.117Z,20.2483
2023-05-02T10:12:24.034Z,20.3487
2023-05-02T10:13:25.942Z,20.4146
2023-05-02T10:14:29.544Z,20.4728
2023-05-02T10:15:29.797Z,20.4153
2023-05-02T10:16:31.772Z,20.2526
2023-05-02T10:17:33.645Z,20.2413
2023-05-02T10:18:35.512Z,20.2879
2023-05-02T10:19:37.436Z,20.3395
2023-05-02T10:20:39.337Z,20.4354
2023-05-02T10:21:41.247Z,20.4124
2023-05-02T10:22:43.207Z,20.2598
2023-05-02T10:23:45.090Z,20.2630
2023-05-02T10:24:47.007Z,20.3089
2023-05-02T10:25:48.911Z,20.3740
2023-05-02T10:26:50.822Z,20.4561
2023-05-02T10:27:52.751Z,20.4625
2023-05-02T10:28:54.682Z,20.2536
2023-05-02T10:29:56.581Z,20.1630
2023-05-02T10:30:58.503Z,20.2425
2023-05-02T10:32:00.487Z,20.3265
2023-05-02T10:33:02.339Z,20.4198
2023-05-02T10:34:04.238Z,20.4744
2023-05-02T10:35:06.191Z,20.3553
2023-05-02T10:36:08.052Z,20.1833
2023-05-02T10:37:09.975Z,20.2224
2023-05-02T10:38:11.879Z,20.2971
2023-05-02T10:39:13.785Z,20.3803
2023-05-02T10:40:15.754Z,20.4487
2023-05-02T10:41:17.647Z,20.4434
2023-05-02T10:42:19.536Z,20.2505
2023-05-02T10:43:21.452Z,20.2300
2023-05-02T10:44:23.362Z,20.2891
2023-05-02T10:45:25.276Z,20.3855
2023-05-02T10:46:27.291Z,20.4670
2023-05-02T10:47:29.156Z,20.4687
2023-05-02T10:48:31.036Z,20.2750
2023-05-02T10:49:32.941Z,20.1197
2023-05-02T10:50:34.888Z,20.2086
2023-05-02T10:51:36.765Z,20.2844
2023-05-02T10:52:38.766Z,20.3879
2023-05-02T10:53:40.588Z,20.4559
2023-05-02T10:54:42.505Z,20.3953
2023-05-02T10:55:44.451Z,20.1850
2023-05-02T10:56:46.337Z,20.1797
2023-05-02T10:57:48.254Z,20.2591
2023-05-02T10:58:50.172Z,20.3520
2023-05-02T10:59:52.085Z,20.4366
2023-05-02T11:00:54.033Z,20.4588
2023-05-02T11:01:55.972Z,20.2429
2023-05-02T11:02:58.067Z,20.1618
2023-05-02T11:03:59.785Z,20.2573
2023-05-02T11:05:02.070Z,20.3393
2023-05-02T11:06:03.613Z,20.4097
2023-05-02T11:07:05.518Z,20.4685
2023-05-02T11:08:07.446Z,20.3304
2023-05-02T11:09:09.334Z,20.1895
2023-05-02T11:10:11.245Z,20.2421
2023-05-02T11:11:13.164Z,20.3343
2023-05-02T11:12:15.052Z,20.4237
2023-05-02T11:13:16.975Z,20.4902
2023-05-02T11:14:20.241Z,20.4325
2023-05-02T11:15:20.830Z,20.2098
2023-05-02T11:16:22.749Z,20.1700
2023-05-02T11:17:24.654Z,20.2620
2023-05-02T11:18:26.530Z,20.3729
2023-05-02T11:19:29.221Z,20.4329
2023-05-02T11:20:30.359Z,20.4662
2023-05-02T11:21:32.320Z,20.2754
2023-05-02T11:22:34.193Z,20.1503
2023-05-02T11:23:36.102Z,20.2117
2023-05-02T11:24:38.039Z,20.2867
2023-05-02T11:25:39.961Z,20.3773
2023-05-02T11:26:41.883Z,20.4598
2023-05-02T11:27:43.788Z,20.3916
2023-05-02T11:28:45.720Z,20.2066
2023-05-02T11:29:47.616Z,20.2398
2023-05-02T11:30:49.528Z,20.3179
2023-05-02T11:31:51.473Z,20.4007
2023-05-02T11:32:53.431Z,20.4721
2023-05-02T11:33:55.265Z,20.4487
2023-05-02T11:34:57.278Z,20.2302
2023-05-02T11:35:59.096Z,20.1647
2023-05-02T11:37:01.013Z,20.2591
2023-05-02T11:38:02.929Z,20.3409
2023-05-02T11:39:04.837Z,20.4278
2023-05-02T11:40:06.752Z,20.4765
2023-05-02T11:41:08.685Z,20.3452
2023-05-02T11:42:10.586Z,20.1877
2023-05-02T11:43:12.525Z,20.2431
2023-05-02T11:44:14.400Z,20.3241
2023-05-02T11:45:16.327Z,20.3898
2023-05-02T11:46:18.281Z,20.4646
2023-05-02T11:47:20.150Z,20.4341
2023-05-02T11:48:22.088Z,20.2185
2023-05-02T11:49:23.974Z,20.2172
2023-05-02T11:50:25.878Z,20.2739
2023-05-02T11:51:27.793Z,20.3760
2023-05-02T11:52:29.698Z,20.4500
2023-05-02T11:53:31.642Z,20.4682
2023-05-02T11:54:33.555Z,20.2618
2023-05-02T11:55:35.479Z,20.1655
2023-05-02T11:56:37.382Z,20.2170
2023-05-02T11:57:39.291Z,20.3245
2023-05-02T11:58:41.226Z,20.4124
2023-05-02T11:59:43.127Z,20.4763
2023-05-02T12:00:45.018Z,20.3768
2023-05-02T12:01:46.936Z,20.2014
2023-05-02T12:02:48.976Z,20.2222
2023-05-02T12:03:50.785Z,20.3197
2023-05-02T12:04:52.684Z,20.3943
2023-05-02T12:05:54.686Z,20.4541
2023-05-02T12:06:56.557Z,20.4325
2023-05-02T12:07:58.441Z,20.2359
2023-05-02T12:09:00.350Z,20.2150
2023-05-02T12:10:02.272Z,20.3006
2023-05-02T12:11:04.199Z,20.3762
2023-05-02T12:12:06.089Z,20.4510
2023-05-02T12:13:10.025Z,20.4808
2023-05-02T12:14:09.902Z,20.2832
2023-05-02T12:15:11.826Z,20.1439
2023-05-02T12:16:13.848Z,20.2074
2023-05-02T12:17:15.658Z,20.3226
2023-05-02T12:18:18.081Z,20.4068
2023-05-02T12:19:19.468Z,20.4795
2023-05-02T12:20:21.392Z,20.3992
2023-05-02T12:21:23.308Z,20.1595
2023-05-02T12:22:25.225Z,20.1382
2023-05-02T12:23:27.131Z,20.2509
2023-05-02T12:24:29.066Z,20.3820
2023-05-02T12:25:30.975Z,20.4411
2023-05-02T12:26:33.027Z,20.4742
2023-05-02T12:27:34.797Z,20.2836
2023-05-02T12:28:36.698Z,20.1566
2023-05-02T12:29:38.679Z,20.2068
2023-05-02T12:30:40.524Z,20.2826
2023-05-02T12:31:42.444Z,20.3547
2023-05-02T12:32:44.419Z,20.4426
2023-05-02T12:33:46.282Z,20.3639
2023-05-02T12:34:48.196Z,20.3208
2023-05-02T12:35:50.116Z,20.3606
2023-05-02T12:36:52.017Z,20.4356
2023-05-02T12:37:53.949Z,20.5050
2023-05-02T12:38:55.997Z,20.5734
2023-05-02T12:39:57.765Z,20.4627
2023-05-02T12:40:59.688Z,20.2400
2023-05-02T12:42:01.602Z,20.1591
2023-05-02T12:43:03.491Z,20.2569
2023-05-02T12:44:05.480Z,20.3600
2023-05-02T12:45:07.302Z,20.4294
2023-05-02T12:46:09.220Z,20.4752
2023-05-02T12:47:11.173Z,20.2867
2023-05-02T12:48:13.111Z,20.2253
2023-05-02T12:49:14.966Z,20.2785
2023-05-02T12:50:16.933Z,20.3643
2023-05-02T12:51:18.796Z,20.4311
2023-05-02T12:52:20.714Z,20.4797
2023-05-02T12:53:22.628Z,20.3885
2023-05-02T12:54:24.542Z,20.1727
2023-05-02T12:55:26.675Z,20.1727
2023-05-02T12:56:28.373Z,20.2682
2023-05-02T12:57:30.338Z,20.3789
2023-05-02T12:58:32.181Z,20.4541
2023-05-02T12:59:34.112Z,20.4680
2023-05-02T13:00:36.088Z,20.2639
2023-05-02T13:01:38.066Z,20.2105
2023-05-02T13:02:39.839Z,20.2678
2023-05-02T13:03:41.878Z,20.3378
2023-05-02T13:04:44.181Z,20.4126
2023-05-02T13:05:45.591Z,20.4594
2023-05-02T13:06:47.490Z,20.3097
2023-05-02T13:07:49.420Z,20.2010
2023-05-02T13:08:51.312Z,20.2731
2023-05-02T13:09:53.221Z,20.3733
2023-05-02T13:10:55.149Z,20.4549
2023-05-02T13:11:57.096Z,20.5106
2023-05-02T13:12:58.976Z,20.3996
2023-05-02T13:14:00.878Z,20.1914
2023-05-02T13:15:02.821Z,20.1827
2023-05-02T13:16:04.720Z,20.2468
2023-05-02T13:17:06.745Z,20.3193
2023-05-02T13:18:08.619Z,20.4124
2023-05-02T13:19:10.454Z,20.4315
2023-05-02T13:20:12.359Z,20.2250
2023-05-02T13:21:14.284Z,20.1940
2023-05-02T13:22:16.176Z,20.2723
2023-05-02T13:23:18.122Z,20.3516
2023-05-02T13:24:20.060Z,20.4323
2023-05-02T13:25:21.901Z,20.4703
2023-05-02T13:26:23.827Z,20.3002
2023-05-02T13:27:25.748Z,20.1797
2023-05-02T13:28:27.683Z,20.2078
2023-05-02T13:29:29.559Z,20.3263
2023-05-02T13:30:31.556Z,20.4352
2023-05-02T13:31:33.548Z,20.4929
2023-05-02T13:32:35.395Z,20.4167
2023-05-02T13:33:37.287Z,20.2090
2023-05-02T13:34:39.221Z,20.2000
2023-05-02T13:35:41.100Z,20.2458
2023-05-02T13:36:43.039Z,20.3128
2023-05-02T13:37:44.926Z,20.4109
2023-05-02T13:38:46.840Z,20.4208
2023-05-02T13:39:48.761Z,20.2569
2023-05-02T13:40:50.665Z,20.2559
2023-05-02T13:41:52.585Z,20.3160
2023-05-02T13:42:54.509Z,20.3877
2023-05-02T13:43:56.418Z,20.4668
2023-05-02T13:44:58.383Z,20.4682
2023-05-02T13:46:00.330Z,20.2520
2023-05-02T13:47:02.162Z,20.1605
2023-05-02T13:48:04.189Z,20.2417
2023-05-02T13:49:06.009Z,20.3464
2023-05-02T13:50:07.936Z,20.4185
2023-05-02T13:51:09.827Z,20.4871
2023-05-02T13:52:11.733Z,20.3828
2023-05-02T13:53:13.677Z,20.1813
2023-05-02T13:54:15.550Z,20.2024
2023-05-02T13:55:17.472Z,20.2858
2023-05-02T13:56:19.415Z,20.3768
2023-05-02T13:57:21.274Z,20.4467
2023-05-02T13:58:23.202Z,20.4282
2023-05-02T13:59:25.152Z,20.2193
2023-05-02T14:00:27.261Z,20.2014
2023-05-02T14:01:28.990Z,20.2682
2023-05-02T14:02:30.963Z,20.3569
2023-05-02T14:03:32.893Z,20.4405
2023-05-02T14:04:34.677Z,20.4685
2023-05-02T14:05:36.633Z,20.2897
2023-05-02T14:06:38.669Z,20.2051
2023-05-02T14:07:40.404Z,20.2676
2023-05-02T14:08:42.328Z,20.3647
2023-05-02T14:09:44.233Z,20.4405
2023-05-02T14:10:46.171Z,20.4808
2023-05-02T14:11:48.053Z,20.3477
2023-05-02T14:12:49.963Z,20.1667
2023-05-02T14:13:51.877Z,20.1811
2023-05-02T14:14:53.832Z,20.2824
2023-05-02T14:15:55.735Z,20.3723
2023-05-02T14:16:57.609Z,20.4530
2023-05-02T14:17:59.565Z,20.4362
2023-05-02T14:19:01.431Z,20.2949
2023-05-02T14:20:03.615Z,20.2824
2023-05-02T14:21:05.260Z,20.3171
2023-05-02T14:22:07.165Z,20.4007
2023-05-02T14:23:09.059Z,20.4818
2023-05-02T14:24:11.029Z,20.4633
2023-05-02T14:25:12.884Z,20.2674
2023-05-02T14:26:14.805Z,20.1946
2023-05-02T14:27:16.719Z,20.2727
2023-05-02T14:28:18.618Z,20.3581
2023-05-02T14:29:20.540Z,20.4307
2023-05-02T14:30:22.444Z,20.4726
2023-05-02T14:31:24.423Z,20.3302
2023-05-02T14:32:26.299Z,20.2620
2023-05-02T14:33:28.196Z,20.3031
2023-05-02T14:34:30.114Z,20.3801
2023-05-02T14:35:32.033Z,20.4432
2023-05-02T14:36:33.933Z,20.5071
2023-05-02T14:37:35.847Z,20.3846
2023-05-02T14:38:37.800Z,20.2061
2023-05-02T14:39:39.669Z,20.2109
2023-05-02T14:40:41.601Z,20.2861
2023-05-02T14:41:43.495Z,20.3495
2023-05-02T14:42:45.401Z,20.4333
2023-05-02T14:43:47.307Z,20.4181
2023-05-02T14:44:49.276Z,20.2250
2023-05-02T14:45:51.157Z,20.2485
2023-05-02T14:46:53.123Z,20.3259
2023-05-02T14:47:54.979Z,20.3964
2023-05-02T14:48:56.870Z,20.4781
2023-05-02T14:49:58.806Z,20.4913
2023-05-02T14:51:00.669Z,20.3025
2023-05-02T14:52:02.589Z,20.2080
2023-05-02T14:53:04.506Z,20.2626
2023-05-02T14:54:06.471Z,20.3483
2023-05-02T14:55:08.327Z,20.4381
2023-05-02T14:56:10.230Z,20.4777
2023-05-02T14:57:12.142Z,20.3257
2023-05-02T14:58:14.059Z,20.2146
2023-05-02T14:59:16.086Z,20.2698
2023-05-02T15:00:17.878Z,20.3473
2023-05-02T15:01:19.896Z,20.4155
2023-05-02T15:02:21.839Z,20.4828
2023-05-02T15:03:23.785Z,20.3939
2023-05-02T15:04:25.758Z,20.2224
2023-05-02T15:05:27.428Z,20.2211
2023-05-02T15:06:29.414Z,20.3013
2023-05-02T15:07:31.302Z,20.3789
2023-05-02T15:08:33.184Z,20.4514
2023-05-02T15:09:35.067Z,20.4461
2023-05-02T15:10:37.002Z,20.2419
2023-05-02T15:11:38.896Z,20.2002
2023-05-02T15:12:40.847Z,20.2900
2023-05-02T15:13:42.733Z,20.3703
2023-05-02T15:14:44.647Z,20.4500
2023-05-02T15:15:46.567Z,20.4923
2023-05-02T15:16:48.499Z,20.3306
2023-05-02T15:17:50.406Z,20.1207
2023-05-02T15:18:52.311Z,20.1560
2023-05-02T15:19:55.350Z,20.2723
2023-05-02T15:20:56.139Z,20.3645
2023-05-02T15:21:58.060Z,20.4446
2023-05-02T15:22:59.943Z,20.4130
2023-05-02T15:24:03.630Z,20.2346
2023-05-02T15:25:05.310Z,20.2183
2023-05-02T15:26:05.689Z,20.2719
2023-05-02T15:27:07.623Z,20.3462
2023-05-02T15:28:09.512Z,20.4360
2023-05-02T15:29:11.426Z,20.4350
2023-05-02T15:30:13.349Z,20.2575
2023-05-02T15:31:15.235Z,20.2304
2023-05-02T15:32:17.259Z,20.2846
2023-05-02T15:33:19.059Z,20.3616
2023-05-02T15:34:20.970Z,20.4413
2023-05-02T15:35:22.886Z,20.4929
2023-05-02T15:36:24.813Z,20.3111
2023-05-02T15:37:26.720Z,20.1542
2023-05-02T15:38:28.638Z,20.2133
2023-05-02T15:39:30.522Z,20.2902
2023-05-02T15:40:32.463Z,20.3914
2023-05-02T15:41:34.353Z,20.4467
2023-05-02T15:42:36.805Z,20.3664
2023-05-02T15:43:38.239Z,20.2234
2023-05-02T15:44:40.092Z,20.2390
2023-05-02T15:45:42.025Z,20.3374
2023-05-02T15:46:43.942Z,20.4060
2023-05-02T15:47:45.856Z,20.4882
2023-05-02T15:48:47.743Z,20.4623
2023-05-02T15:49:49.677Z,20.2522
2023-05-02T15:50:51.561Z,20.1593
2023-05-02T15:51:53.495Z,20.2242
2023-05-02T15:52:55.387Z,20.3076
2023-05-02T15:53:57.315Z,20.3871
2023-05-02T15:54:59.221Z,20.4537
2023-05-02T15:56:01.143Z,20.3097
2023-05-02T15:57:03.035Z,20.2417
2023-05-02T15:58:04.957Z,20.2789
2023-05-02T15:59:06.877Z,20.3448
2023-05-02T16:00:08.773Z,20.4064
2023-05-02T16:01:10.738Z,20.4670
2023-05-02T16:02:12.597Z,20.3273
2023-05-02T16:03:14.580Z,20.2082
2023-05-02T16:04:16.505Z,20.2548
2023-05-02T16:05:18.340Z,20.3253
2023-05-02T16:06:20.263Z,20.4173
2023-05-02T16:07:22.199Z,20.4956
2023-05-02T16:08:24.071Z,20.4226
2023-05-02T16:09:25.981Z,20.1846
2023-05-02T16:10:27.894Z,20.1749
2023-05-02T16:11:29.829Z,20.2937
2023-05-02T16:12:31.738Z,20.3666
2023-05-02T16:13:33.657Z,20.4407
2023-05-02T16:14:35.557Z,20.4758
2023-05-02T16:15:37.473Z,20.2826
2023-05-02T16:16:39.401Z,20.1817
2023-05-02T16:17:41.335Z,20.2501
2023-05-02T16:18:43.200Z,20.3294
2023-05-02T16:19:45.115Z,20.4265
2023-05-02T16:20:47.017Z,20.4890
2023-05-02T16:21:48.947Z,20.3746
2023-05-02T16:22:50.829Z,20.2503
2023-05-02T16:23:52.764Z,20.2713
2023-05-02T16:24:54.669Z,20.3257
2023-05-02T16:25:56.592Z,20.3873
2023-05-02T16:26:58.497Z,20.4606
2023-05-02T16:28:00.421Z,20.4019
2023-05-02T16:29:02.314Z,20.2700
2023-05-02T16:30:04.616Z,20.3049
2023-05-02T16:31:06.177Z,20.3655
2023-05-02T16:32:08.053Z,20.4518
2023-05-02T16:33:10.021Z,20.5005
2023-05-02T16:34:11.891Z,20.4358
2023-05-02T16:35:13.789Z,20.2158
2023-05-02T16:36:15.726Z,20.1868
2023-05-02T16:37:17.622Z,20.2534
2023-05-02T16:38:19.540Z,20.3236
2023-05-02T16:39:21.441Z,20.4021
2023-05-02T16:40:23.367Z,20.4436
2023-05-02T16:41:25.276Z,20.2971
2023-05-02T16:42:27.194Z,20.2928
2023-05-02T16:43:29.111Z,20.3836
2023-05-02T16:44:30.996Z,20.4528
2023-05-02T16:45:32.928Z,20.5223
2023-05-02T16:46:34.853Z,20.5500
2023-05-02T16:47:36.757Z,20.3719
2023-05-02T16:48:38.670Z,20.1675
2023-05-02T16:49:40.585Z,20.1979
2023-05-02T16:50:42.509Z,20.2992
2023-05-02T16:51:44.399Z,20.3618
2023-05-02T16:52:46.318Z,20.4426
2023-05-02T16:53:48.219Z,20.4109
2023-05-02T16:54:50.164Z,20.3025
2023-05-02T16:55:52.044Z,20.3337
2023-05-02T16:56:53.977Z,20.3968
2023-05-02T16:57:55.868Z,20.4752
2023-05-02T16:58:57.799Z,20.5264
2023-05-02T16:59:59.805Z,20.4715
2023-05-02T17:01:01.674Z,20.2374
2023-05-02T17:02:03.578Z,20.1616
2023-05-02T17:03:05.793Z,20.2450
2023-05-02T17:04:07.369Z,20.3306
2023-05-02T17:05:09.277Z,20.4033
2023-05-02T17:06:11.196Z,20.4635
2023-05-02T17:07:13.110Z,20.3526
2023-05-02T17:08:15.011Z,20.3220
2023-05-02T17:09:16.907Z,20.3339
2023-05-02T17:10:18.834Z,20.4021
2023-05-02T17:11:20.738Z,20.4598
2023-05-02T17:12:22.718Z,20.5073
2023-05-02T17:13:24.566Z,20.3370
2023-05-02T17:14:26.479Z,20.1696
2023-05-02T17:15:28.378Z,20.2049
2023-05-02T17:16:30.311Z,20.3060
2023-05-02T17:17:32.216Z,20.3978
2023-05-02T17:18:34.130Z,20.4672
2023-05-02T17:19:36.040Z,20.4233
2023-05-02T17:20:37.935Z,20.2454
2023-05-02T17:21:39.845Z,20.2672
2023-05-02T17:22:41.786Z,20.3236
2023-05-02T17:23:43.663Z,20.3879
2023-05-02T17:24:45.588Z,20.4705
2023-05-02T17:25:47.489Z,20.4403
2023-05-02T17:26:49.414Z,20.2267
2023-05-02T17:27:51.340Z,20.1710
2023-05-02T17:28:53.236Z,20.2630
2023-05-02T17:29:55.146Z,20.3633
2023-05-02T17:30:57.099Z,20.4313
2023-05-02T17:31:58.975Z,20.4837
2023-05-02T17:33:00.920Z,20.3286
2023-05-02T17:34:02.851Z,20.1642
2023-05-02T17:35:04.779Z,20.2101
2023-05-02T17:36:06.689Z,20.3021
2023-05-02T17:37:08.617Z,20.3925
2023-05-02T17:38:10.510Z,20.4664
2023-05-02T17:39:12.412Z,20.4099
2023-05-02T17:40:14.325Z,20.2185
2023-05-02T17:41:16.262Z,20.2086
2023-05-02T17:42:18.160Z,20.2655
2023-05-02T17:43:20.093Z,20.3499
2023-05-02T17:44:21.978Z,20.4218
2023-05-02T17:45:23.891Z,20.4146
2023-05-02T17:46:25.881Z,20.2064
2023-05-02T17:47:27.723Z,20.1712
2023-05-02T17:48:29.677Z,20.2620
2023-05-02T17:49:31.548Z,20.3491
2023-05-02T17:50:33.453Z,20.4341
2023-05-02T17:51:35.373Z,20.4754